createdAt,value
2023-02-11T00:00:44.870Z,984.07
2023-02-11T00:01:44.863Z,984.13
2023-02-11T00:02:47.538Z,984.10
2023-02-11T00:03:44.754Z,984.02
2023-02-11T00:04:44.636Z,984.03
2023-02-11T00:05:44.585Z,984.01
2023-02-11T00:06:44.574Z,983.98
2023-02-11T00:07:44.496Z,984.02
2023-02-11T00:08:44.417Z,983.99
2023-02-11T00:09:44.354Z,984.04
2023-02-11T00:10:44.306Z,984.03
2023-02-11T00:11:44.257Z,984.04
2023-02-11T00:12:44.174Z,984.01
2023-02-11T00:13:44.120Z,984.00
2023-02-11T00:14:44.075Z,983.98
2023-02-11T00:15:44.000Z,983.93
2023-02-11T00:16:44.015Z,983.95
2023-02-11T00:17:43.870Z,983.92
2023-02-11T00:18:43.814Z,983.91
2023-02-11T00:19:43.752Z,983.88
2023-02-11T00:20:43.697Z,983.92
2023-02-11T00:21:43.659Z,984.01
2023-02-11T00:22:43.577Z,984.03
2023-02-11T00:23:43.528Z,984.03
2023-02-11T00:24:43.490Z,984.07
2023-02-11T00:25:43.385Z,984.07
2023-02-11T00:26:43.357Z,984.10
2023-02-11T00:27:43.302Z,984.11
2023-02-11T00:28:43.207Z,984.11
2023-02-11T00:29:43.211Z,984.17
2023-02-11T00:30:43.286Z,984.20
2023-02-11T00:31:43.233Z,984.13
2023-02-11T00:32:43.001Z,984.09
2023-02-11T00:33:42.943Z,984.12
2023-02-11T00:34:42.826Z,984.09
2023-02-11T00:35:42.787Z,984.03
2023-02-11T00:36:42.741Z,984.03
2023-02-11T00:37:42.671Z,984.04
2023-02-11T00:38:42.611Z,984.04
2023-02-11T00:39:42.550Z,984.07
2023-02-11T00:40:42.483Z,984.07
2023-02-11T00:41:42.438Z,984.09
2023-02-11T00:42:42.373Z,984.10
2023-02-11T00:43:42.306Z,984.09
2023-02-11T00:44:42.244Z,984.11
2023-02-11T00:45:42.173Z,984.04
2023-02-11T00:46:42.336Z,984.03
2023-02-11T00:47:42.072Z,984.00
2023-02-11T00:48:42.011Z,983.98
2023-02-11T00:49:41.945Z,983.95
2023-02-11T00:50:41.890Z,983.93
2023-02-11T00:51:41.837Z,983.95
2023-02-11T00:52:41.759Z,983.89
2023-02-11T00:53:41.696Z,983.88
2023-02-11T00:54:41.610Z,983.85
2023-02-11T00:55:41.614Z,983.85
2023-02-11T00:56:41.530Z,983.85
2023-02-11T00:57:41.469Z,983.86
2023-02-11T00:58:41.410Z,983.85
2023-02-11T00:59:41.358Z,983.82
2023-02-11T01:00:41.282Z,983.77
2023-02-11T01:01:41.303Z,983.74
2023-02-11T01:02:41.185Z,983.78
2023-02-11T01:03:41.160Z,983.74
2023-02-11T01:04:41.024Z,983.74
2023-02-11T01:05:41.028Z,983.66
2023-02-11T01:06:40.915Z,983.64
2023-02-11T01:07:40.866Z,983.69
2023-02-11T01:08:40.831Z,983.66
2023-02-11T01:09:40.777Z,983.64
2023-02-11T01:10:40.675Z,983.61
2023-02-11T01:11:40.637Z,983.59
2023-02-11T01:12:40.563Z,983.53
2023-02-11T01:13:40.545Z,983.51
2023-02-11T01:14:40.435Z,983.43
2023-02-11T01:15:40.455Z,983.30
2023-02-11T01:16:40.324Z,983.20
2023-02-11T01:17:40.284Z,983.13
2023-02-11T01:18:40.202Z,983.15
2023-02-11T01:19:40.126Z,983.17
2023-02-11T01:20:40.061Z,983.20
2023-02-11T01:21:40.043Z,983.22
2023-02-11T01:22:39.962Z,983.24
2023-02-11T01:23:39.912Z,983.25
2023-02-11T01:24:39.832Z,983.20
2023-02-11T01:25:39.750Z,983.20
2023-02-11T01:26:39.729Z,983.17
2023-02-11T01:27:39.663Z,983.09
2023-02-11T01:28:39.647Z,983.09
2023-02-11T01:29:39.547Z,983.07
2023-02-11T01:30:39.583Z,983.10
2023-02-11T01:31:39.537Z,983.12
2023-02-11T01:32:39.342Z,983.14
2023-02-11T01:33:39.353Z,983.10
2023-02-11T01:34:39.262Z,983.06
2023-02-11T01:35:39.200Z,983.09
2023-02-11T01:36:39.146Z,983.10
2023-02-11T01:37:39.065Z,983.01
2023-02-11T01:38:38.997Z,983.01
2023-02-11T01:39:38.927Z,983.00
2023-02-11T01:40:38.869Z,983.02
2023-02-11T01:41:38.847Z,982.97
2023-02-11T01:42:38.771Z,983.09
2023-02-11T01:43:38.738Z,983.06
2023-02-11T01:44:38.619Z,983.04
2023-02-11T01:45:38.582Z,983.12
2023-02-11T01:46:38.587Z,983.14
2023-02-11T01:47:38.444Z,983.11
2023-02-11T01:48:38.429Z,983.08
2023-02-11T01:49:38.416Z,983.13
2023-02-11T01:50:38.267Z,983.12
2023-02-11T01:51:38.246Z,983.11
2023-02-11T01:52:38.154Z,983.07
2023-02-11T01:53:38.124Z,983.05
2023-02-11T01:54:38.060Z,983.01
2023-02-11T01:55:37.968Z,982.99
2023-02-11T01:56:37.918Z,982.96
2023-02-11T01:57:37.856Z,982.95
2023-02-11T01:58:37.803Z,982.96
2023-02-11T01:59:37.761Z,982.97
2023-02-11T02:00:37.673Z,982.98
2023-02-11T02:01:37.660Z,982.97
2023-02-11T02:02:37.571Z,983.00
2023-02-11T02:03:37.520Z,982.92
2023-02-11T02:04:37.428Z,982.98
2023-02-11T02:05:37.478Z,982.96
2023-02-11T02:06:37.322Z,982.96
2023-02-11T02:07:37.300Z,982.92
2023-02-11T02:08:37.165Z,982.92
2023-02-11T02:09:37.162Z,982.92
2023-02-11T02:10:37.082Z,982.91
2023-02-11T02:11:37.012Z,982.91
2023-02-11T02:12:36.950Z,982.95
2023-02-11T02:13:36.930Z,982.90
2023-02-11T02:14:36.876Z,982.90
2023-02-11T02:15:36.784Z,982.85
2023-02-11T02:16:36.823Z,982.91
2023-02-11T02:17:36.799Z,982.94
2023-02-11T02:18:36.598Z,982.95
2023-02-11T02:19:36.570Z,982.94
2023-02-11T02:20:36.474Z,982.92
2023-02-11T02:21:36.380Z,982.92
2023-02-11T02:22:36.332Z,982.90
2023-02-11T02:23:36.297Z,982.88
2023-02-11T02:24:36.246Z,982.87
2023-02-11T02:25:36.236Z,982.87
2023-02-11T02:26:36.103Z,982.89
2023-02-11T02:27:36.025Z,982.90
2023-02-11T02:28:35.980Z,982.86
2023-02-11T02:29:35.949Z,982.88
2023-02-11T02:30:35.936Z,982.85
2023-02-11T02:31:35.841Z,982.86
2023-02-11T02:32:35.752Z,982.80
2023-02-11T02:33:35.685Z,982.85
2023-02-11T02:34:35.638Z,982.86
2023-02-11T02:35:35.592Z,982.91
2023-02-11T02:36:35.500Z,982.90
2023-02-11T02:37:35.463Z,982.92
2023-02-11T02:38:35.376Z,982.87
2023-02-11T02:39:35.329Z,982.90
2023-02-11T02:40:35.273Z,982.93
2023-02-11T02:41:35.184Z,982.88
2023-02-11T02:42:35.125Z,982.84
2023-02-11T02:43:35.077Z,982.79
2023-02-11T02:44:35.007Z,982.77
2023-02-11T02:45:34.993Z,982.68
2023-02-11T02:46:34.950Z,982.79
2023-02-11T02:47:34.828Z,982.77
2023-02-11T02:48:34.790Z,982.89
2023-02-11T02:49:34.723Z,982.87
2023-02-11T02:50:34.679Z,982.84
2023-02-11T02:51:34.580Z,982.85
2023-02-11T02:52:34.528Z,982.90
2023-02-11T02:53:34.493Z,982.95
2023-02-11T02:54:34.460Z,982.96
2023-02-11T02:55:34.394Z,982.91
2023-02-11T02:56:34.294Z,982.94
2023-02-11T02:57:34.260Z,982.89
2023-02-11T02:58:34.198Z,982.89
2023-02-11T02:59:34.134Z,982.90
2023-02-11T03:00:34.101Z,982.91
2023-02-11T03:01:33.987Z,982.89
2023-02-11T03:02:33.934Z,982.87
2023-02-11T03:03:33.961Z,982.88
2023-02-11T03:04:33.835Z,982.86
2023-02-11T03:05:33.783Z,982.85
2023-02-11T03:06:33.757Z,982.82
2023-02-11T03:07:33.692Z,982.80
2023-02-11T03:08:33.623Z,982.82
2023-02-11T03:09:33.549Z,982.82
2023-02-11T03:10:33.477Z,982.80
2023-02-11T03:11:33.456Z,982.84
2023-02-11T03:12:33.365Z,982.84
2023-02-11T03:13:33.302Z,982.78
2023-02-11T03:14:33.252Z,982.70
2023-02-11T03:15:33.177Z,982.67
2023-02-11T03:16:33.111Z,982.65
2023-02-11T03:17:33.070Z,982.63
2023-02-11T03:18:32.988Z,982.58
2023-02-11T03:19:32.925Z,982.56
2023-02-11T03:20:32.878Z,982.61
2023-02-11T03:21:32.795Z,982.53
2023-02-11T03:22:32.791Z,982.51
2023-02-11T03:23:32.696Z,982.54
2023-02-11T03:24:32.624Z,982.50
2023-02-11T03:25:32.565Z,982.44
2023-02-11T03:26:32.478Z,982.45
2023-02-11T03:27:32.475Z,982.40
2023-02-11T03:28:32.440Z,982.40
2023-02-11T03:29:32.332Z,982.45
2023-02-11T03:30:32.271Z,982.37
2023-02-11T03:31:32.399Z,982.40
2023-02-11T03:32:32.165Z,982.36
2023-02-11T03:33:32.466Z,982.34
2023-02-11T03:34:32.029Z,982.28
2023-02-11T03:35:31.980Z,982.21
2023-02-11T03:36:31.915Z,982.22
2023-02-11T03:37:31.842Z,982.13
2023-02-11T03:38:31.837Z,982.13
2023-02-11T03:39:31.748Z,982.12
2023-02-11T03:40:31.668Z,982.16
2023-02-11T03:41:31.632Z,982.10
2023-02-11T03:42:31.535Z,982.10
2023-02-11T03:43:31.531Z,982.14
2023-02-11T03:44:31.415Z,982.16
2023-02-11T03:45:31.396Z,982.17
2023-02-11T03:46:31.311Z,982.20
2023-02-11T03:47:31.244Z,982.21
2023-02-11T03:48:31.193Z,982.22
2023-02-11T03:49:31.150Z,982.29
2023-02-11T03:50:31.034Z,982.29
2023-02-11T03:51:30.999Z,982.28
2023-02-11T03:52:30.954Z,982.32
2023-02-11T03:53:30.918Z,982.34
2023-02-11T03:54:30.880Z,982.40
2023-02-11T03:55:30.758Z,982.43
2023-02-11T03:56:30.728Z,982.38
2023-02-11T03:57:30.672Z,982.41
2023-02-11T03:58:30.572Z,982.39
2023-02-11T03:59:30.525Z,982.41
2023-02-11T04:00:30.500Z,982.38
2023-02-11T04:01:30.482Z,982.37
2023-02-11T04:02:30.334Z,982.39
2023-02-11T04:03:30.343Z,982.42
2023-02-11T04:04:30.209Z,982.42
2023-02-11T04:05:30.150Z,982.39
2023-02-11T04:06:30.121Z,982.35
2023-02-11T04:07:30.058Z,982.30
2023-02-11T04:08:29.975Z,982.31
2023-02-11T04:09:29.916Z,982.32
2023-02-11T04:10:29.883Z,982.30
2023-02-11T04:11:29.801Z,982.30
2023-02-11T04:12:29.764Z,982.33
2023-02-11T04:13:29.674Z,982.35
2023-02-11T04:14:29.624Z,982.38
2023-02-11T04:15:29.562Z,982.31
2023-02-11T04:16:29.564Z,982.27
2023-02-11T04:17:29.478Z,982.24
2023-02-11T04:18:29.384Z,982.17
2023-02-11T04:19:29.335Z,982.15
2023-02-11T04:20:29.287Z,982.10
2023-02-11T04:21:29.230Z,982.13
2023-02-11T04:22:29.188Z,982.06
2023-02-11T04:23:29.067Z,982.07
2023-02-11T04:24:29.032Z,982.17
2023-02-11T04:25:28.971Z,982.14
2023-02-11T04:26:28.922Z,982.18
2023-02-11T04:27:28.885Z,982.18
2023-02-11T04:28:28.894Z,982.17
2023-02-11T04:29:28.735Z,982.19
2023-02-11T04:30:28.680Z,982.19
2023-02-11T04:31:28.749Z,982.19
2023-02-11T04:32:28.551Z,982.21
2023-02-11T04:33:28.519Z,982.22
2023-02-11T04:34:28.404Z,982.21
2023-02-11T04:35:28.368Z,982.16
2023-02-11T04:36:28.322Z,982.16
2023-02-11T04:37:28.280Z,982.15
2023-02-11T04:38:28.195Z,982.18
2023-02-11T04:39:28.139Z,982.11
2023-02-11T04:40:28.067Z,982.13
2023-02-11T04:41:28.002Z,982.11
2023-02-11T04:42:27.933Z,982.09
2023-02-11T04:43:27.919Z,982.17
2023-02-11T04:44:27.843Z,982.13
2023-02-11T04:45:27.775Z,982.18
2023-02-11T04:46:27.751Z,982.14
2023-02-11T04:47:27.655Z,982.19
2023-02-11T04:48:27.638Z,982.20
2023-02-11T04:49:27.540Z,982.23
2023-02-11T04:50:27.480Z,982.19
2023-02-11T04:51:27.449Z,982.18
2023-02-11T04:52:27.369Z,982.21
2023-02-11T04:53:27.290Z,982.19
2023-02-11T04:54:27.226Z,982.14
2023-02-11T04:55:27.167Z,982.17
2023-02-11T04:56:27.110Z,982.13
2023-02-11T04:57:27.046Z,982.17
2023-02-11T04:58:27.007Z,982.13
2023-02-11T04:59:26.909Z,982.16
2023-02-11T05:00:26.878Z,982.21
2023-02-11T05:01:26.908Z,982.24
2023-02-11T05:02:26.747Z,982.18
2023-02-11T05:03:26.713Z,982.16
2023-02-11T05:04:26.740Z,982.18
2023-02-11T05:05:26.586Z,982.17
2023-02-11T05:06:26.544Z,982.16
2023-02-11T05:07:26.434Z,982.21
2023-02-11T05:08:26.389Z,982.20
2023-02-11T05:09:26.314Z,982.25
2023-02-11T05:10:26.287Z,982.23
2023-02-11T05:11:26.224Z,982.24
2023-02-11T05:12:26.150Z,982.23
2023-02-11T05:13:26.090Z,982.17
2023-02-11T05:14:26.005Z,982.23
2023-02-11T05:15:25.995Z,982.27
2023-02-11T05:16:25.956Z,982.21
2023-02-11T05:17:25.858Z,982.18
2023-02-11T05:18:25.756Z,982.14
2023-02-11T05:19:25.740Z,982.16
2023-02-11T05:20:25.660Z,982.16
2023-02-11T05:21:25.608Z,982.16
2023-02-11T05:22:25.547Z,982.13
2023-02-11T05:23:25.469Z,982.16
2023-02-11T05:24:25.425Z,982.17
2023-02-11T05:25:25.392Z,982.16
2023-02-11T05:26:25.305Z,982.21
2023-02-11T05:27:25.218Z,982.16
2023-02-11T05:28:25.252Z,982.16
2023-02-11T05:29:25.139Z,982.21
2023-02-11T05:30:25.090Z,982.22
2023-02-11T05:31:25.030Z,982.28
2023-02-11T05:32:24.956Z,982.28
2023-02-11T05:33:24.899Z,982.25
2023-02-11T05:34:24.835Z,982.20
2023-02-11T05:35:24.797Z,982.12
2023-02-11T05:36:24.724Z,982.17
2023-02-11T05:37:24.674Z,982.13
2023-02-11T05:38:24.589Z,982.10
2023-02-11T05:39:24.534Z,982.09
2023-02-11T05:40:24.496Z,982.07
2023-02-11T05:41:24.435Z,982.08
2023-02-11T05:42:24.370Z,982.19
2023-02-11T05:43:24.271Z,982.23
2023-02-11T05:44:24.249Z,982.27
2023-02-11T05:45:24.203Z,982.23
2023-02-11T05:46:24.297Z,982.19
2023-02-11T05:47:24.083Z,982.19
2023-02-11T05:48:23.997Z,982.16
2023-02-11T05:49:23.948Z,982.18
2023-02-11T05:50:23.876Z,982.16
2023-02-11T05:51:23.836Z,982.10
2023-02-11T05:52:23.750Z,982.15
2023-02-11T05:53:23.699Z,982.22
2023-02-11T05:54:23.633Z,982.22
2023-02-11T05:55:23.563Z,982.16
2023-02-11T05:56:23.541Z,982.19
2023-02-11T05:57:23.457Z,982.19
2023-02-11T05:58:23.398Z,982.20
2023-02-11T05:59:23.321Z,982.12
2023-02-11T06:00:23.262Z,982.08
2023-02-11T06:01:23.232Z,982.08
2023-02-11T06:02:23.170Z,982.11
2023-02-11T06:03:23.111Z,982.11
2023-02-11T06:04:23.025Z,982.09
2023-02-11T06:05:23.000Z,982.07
2023-02-11T06:06:22.915Z,982.00
2023-02-11T06:07:22.856Z,981.99
2023-02-11T06:08:22.798Z,981.99
2023-02-11T06:09:22.747Z,981.98
2023-02-11T06:10:22.675Z,981.96
2023-02-11T06:11:22.621Z,981.96
2023-02-11T06:12:22.581Z,981.96
2023-02-11T06:13:22.522Z,981.99
2023-02-11T06:14:22.446Z,982.03
2023-02-11T06:15:22.400Z,982.04
2023-02-11T06:16:22.398Z,981.97
2023-02-11T06:17:22.245Z,981.99
2023-02-11T06:18:22.221Z,981.95
2023-02-11T06:19:22.127Z,981.94
2023-02-11T06:20:22.067Z,981.97
2023-02-11T06:21:23.842Z,982.01
2023-02-11T06:22:21.963Z,982.00
2023-02-11T06:23:21.943Z,982.02
2023-02-11T06:24:45.191Z,982.03
2023-02-11T06:25:21.793Z,981.98
2023-02-11T06:26:21.715Z,982.03
2023-02-11T06:27:21.665Z,981.97
2023-02-11T06:28:21.668Z,982.00
2023-02-11T06:29:21.557Z,982.04
2023-02-11T06:30:21.466Z,982.08
2023-02-11T06:31:21.454Z,982.10
2023-02-11T06:32:42.210Z,982.07
2023-02-11T06:33:21.330Z,982.05
2023-02-11T06:34:21.238Z,982.01
2023-02-11T06:35:21.193Z,982.04
2023-02-11T06:36:21.100Z,982.06
2023-02-11T06:37:21.062Z,982.07
2023-02-11T06:38:21.024Z,982.00
2023-02-11T06:39:20.921Z,982.06
2023-02-11T06:40:20.863Z,982.03
2023-02-11T06:41:20.820Z,982.02
2023-02-11T06:42:20.777Z,982.03
2023-02-11T06:43:20.722Z,981.93
2023-02-11T06:44:20.657Z,981.98
2023-02-11T06:45:20.569Z,981.99
2023-02-11T06:46:20.575Z,981.93
2023-02-11T06:47:20.458Z,982.00
2023-02-11T06:48:20.414Z,981.96
2023-02-11T06:49:20.348Z,982.00
2023-02-11T06:50:20.284Z,981.95
2023-02-11T06:51:20.219Z,981.98
2023-02-11T06:52:20.160Z,981.97
2023-02-11T06:53:20.134Z,982.03
2023-02-11T06:54:20.044Z,981.99
2023-02-11T06:55:19.957Z,982.03
2023-02-11T06:56:19.935Z,982.02
2023-02-11T06:57:19.838Z,982.05
2023-02-11T06:58:19.830Z,982.06
2023-02-11T06:59:19.741Z,982.03
2023-02-11T07:00:19.700Z,982.04
2023-02-11T07:01:19.744Z,981.95
2023-02-11T07:02:21.020Z,981.99
2023-02-11T07:03:19.532Z,982.06
2023-02-11T07:04:19.500Z,982.09
2023-02-11T07:05:19.385Z,982.05
2023-02-11T07:06:19.353Z,982.04
2023-02-11T07:07:19.250Z,982.05
2023-02-11T07:08:19.243Z,982.07
2023-02-11T07:09:19.152Z,982.05
2023-02-11T07:10:19.070Z,982.07
2023-02-11T07:11:19.035Z,982.10
2023-02-11T07:12:18.990Z,982.07
2023-02-11T07:13:18.902Z,982.06
2023-02-11T07:14:18.864Z,982.08
2023-02-11T07:15:18.798Z,982.12
2023-02-11T07:16:18.818Z,982.11
2023-02-11T07:17:18.690Z,982.17
2023-02-11T07:18:18.603Z,982.16
2023-02-11T07:19:18.530Z,982.19
2023-02-11T07:20:18.463Z,982.19
2023-02-11T07:21:18.419Z,982.17
2023-02-11T07:22:18.383Z,982.15
2023-02-11T07:23:18.309Z,982.12
2023-02-11T07:24:18.242Z,982.13
2023-02-11T07:25:18.156Z,982.16
2023-02-11T07:26:18.144Z,982.12
2023-02-11T07:27:18.070Z,982.17
2023-02-11T07:28:18.076Z,982.18
2023-02-11T07:29:17.943Z,982.18
2023-02-11T07:30:17.863Z,982.19
2023-02-11T07:31:17.933Z,982.19
2023-02-11T07:32:17.820Z,982.16
2023-02-11T07:33:17.727Z,982.19
2023-02-11T07:34:17.724Z,982.17
2023-02-11T07:35:17.602Z,982.16
2023-02-11T07:36:17.542Z,982.16
2023-02-11T07:37:17.512Z,982.16
2023-02-11T07:38:17.450Z,982.16
2023-02-11T07:39:17.377Z,982.16
2023-02-11T07:40:17.280Z,982.20
2023-02-11T07:41:17.250Z,982.24
2023-02-11T07:42:17.199Z,982.23
2023-02-11T07:43:17.102Z,982.22
2023-02-11T07:44:17.054Z,982.17
2023-02-11T07:45:16.967Z,982.20
2023-02-11T07:46:17.001Z,982.21
2023-02-11T07:47:16.912Z,982.25
2023-02-11T07:48:16.826Z,982.25
2023-02-11T07:49:16.785Z,982.24
2023-02-11T07:50:16.704Z,982.24
2023-02-11T07:51:16.617Z,982.28
2023-02-11T07:52:16.607Z,982.33
2023-02-11T07:53:16.522Z,982.36
2023-02-11T07:54:16.477Z,982.38
2023-02-11T07:55:16.407Z,982.38
2023-02-11T07:56:16.391Z,982.35
2023-02-11T07:57:16.286Z,982.37
2023-02-11T07:58:16.213Z,982.37
2023-02-11T07:59:16.180Z,982.37
2023-02-11T08:00:16.121Z,982.38
2023-02-11T08:01:16.131Z,982.40
2023-02-11T08:02:15.992Z,982.42
2023-02-11T08:03:15.935Z,982.48
2023-02-11T08:04:15.929Z,982.47
2023-02-11T08:05:15.842Z,982.50
2023-02-11T08:06:15.753Z,982.50
2023-02-11T08:07:15.716Z,982.44
2023-02-11T08:08:15.623Z,982.47
2023-02-11T08:09:15.620Z,982.50
2023-02-11T08:10:15.507Z,982.52
2023-02-11T08:11:15.458Z,982.49
2023-02-11T08:12:15.420Z,982.53
2023-02-11T08:13:15.328Z,982.50
2023-02-11T08:14:15.288Z,982.50
2023-02-11T08:15:15.238Z,982.54
2023-02-11T08:16:15.180Z,982.60
2023-02-11T08:17:15.076Z,982.60
2023-02-11T08:18:16.140Z,982.61
2023-02-11T08:19:14.972Z,982.59
2023-02-11T08:20:14.902Z,982.62
2023-02-11T08:21:14.886Z,982.57
2023-02-11T08:22:14.820Z,982.55
2023-02-11T08:23:14.730Z,982.58
2023-02-11T08:24:14.682Z,982.56
2023-02-11T08:25:14.605Z,982.55
2023-02-11T08:26:14.565Z,982.57
2023-02-11T08:27:14.539Z,982.63
2023-02-11T08:28:14.498Z,982.59
2023-02-11T08:29:14.401Z,982.60
2023-02-11T08:30:14.352Z,982.60
2023-02-11T08:31:14.352Z,982.62
2023-02-11T08:32:14.290Z,982.62
2023-02-11T08:33:14.124Z,982.60
2023-02-11T08:34:14.090Z,982.58
2023-02-11T08:35:14.040Z,982.60
2023-02-11T08:36:13.980Z,982.62
2023-02-11T08:37:13.899Z,982.64
2023-02-11T08:38:13.873Z,982.61
2023-02-11T08:39:19.663Z,982.62
2023-02-11T08:40:13.871Z,982.64
2023-02-11T08:41:13.709Z,982.66
2023-02-11T08:42:13.576Z,982.67
2023-02-11T08:43:13.604Z,982.67
2023-02-11T08:44:13.482Z,982.72
2023-02-11T08:45:13.705Z,982.73
2023-02-11T08:46:13.494Z,982.76
2023-02-11T08:47:13.314Z,982.78
2023-02-11T08:48:13.258Z,982.74
2023-02-11T08:49:13.214Z,982.76
2023-02-11T08:50:13.255Z,982.75
2023-02-11T08:51:13.112Z,982.75
2023-02-11T08:52:13.024Z,982.76
2023-02-11T08:53:12.961Z,982.72
2023-02-11T08:54:12.914Z,982.71
2023-02-11T08:55:12.870Z,982.76
2023-02-11T08:56:13.603Z,982.73
2023-02-11T08:57:13.992Z,982.77
2023-02-11T08:58:12.680Z,982.80
2023-02-11T08:59:12.651Z,982.82
2023-02-11T09:00:12.537Z,982.81
2023-02-11T09:01:12.569Z,982.82
2023-02-11T09:02:12.859Z,982.86
2023-02-11T09:03:12.538Z,982.82
2023-02-11T09:04:12.437Z,982.88
2023-02-11T09:05:12.339Z,982.89
2023-02-11T09:06:12.207Z,982.86
2023-02-11T09:07:12.113Z,982.88
2023-02-11T09:08:12.036Z,982.87
2023-02-11T09:09:12.056Z,982.85
2023-02-11T09:10:11.978Z,982.88
2023-02-11T09:11:11.904Z,982.91
2023-02-11T09:12:11.846Z,982.88
2023-02-11T09:13:11.766Z,982.85
2023-02-11T09:14:11.742Z,982.87
2023-02-11T09:15:11.701Z,982.92
2023-02-11T09:16:11.650Z,982.90
2023-02-11T09:17:11.595Z,982.87
2023-02-11T09:18:11.498Z,982.88
2023-02-11T09:19:11.406Z,982.87
2023-02-11T09:20:11.367Z,982.79
2023-02-11T09:21:11.319Z,982.80
2023-02-11T09:22:11.250Z,982.84
2023-02-11T09:23:11.219Z,982.85
2023-02-11T09:24:11.122Z,982.83
2023-02-11T09:25:11.087Z,982.87
2023-02-11T09:26:11.020Z,982.83
2023-02-11T09:27:10.974Z,982.82
2023-02-11T09:28:10.938Z,982.80
2023-02-11T09:29:10.841Z,982.78
2023-02-11T09:30:10.767Z,982.82
2023-02-11T09:31:10.896Z,982.76
2023-02-11T09:32:10.878Z,982.80
2023-02-11T09:33:10.599Z,982.80
2023-02-11T09:34:10.542Z,982.76
2023-02-11T09:35:10.480Z,982.76
2023-02-11T09:36:10.427Z,982.74
2023-02-11T09:37:10.434Z,982.69
2023-02-11T09:38:10.332Z,982.71
2023-02-11T09:39:10.224Z,982.73
2023-02-11T09:40:10.225Z,982.69
2023-02-11T09:41:10.129Z,982.73
2023-02-11T09:42:10.065Z,982.77
2023-02-11T09:43:10.036Z,982.76
2023-02-11T09:44:09.942Z,982.75
2023-02-11T09:45:09.878Z,982.73
2023-02-11T09:46:09.938Z,982.75
2023-02-11T09:47:09.809Z,982.75
2023-02-11T09:48:09.699Z,982.75
2023-02-11T09:49:09.614Z,982.78
2023-02-11T09:50:09.569Z,982.77
2023-02-11T09:51:09.515Z,982.79
2023-02-11T09:52:09.479Z,982.75
2023-02-11T09:53:09.419Z,982.78
2023-02-11T09:54:09.351Z,982.77
2023-02-11T09:55:09.322Z,982.80
2023-02-11T09:56:09.238Z,982.80
2023-02-11T09:57:22.848Z,982.71
2023-02-11T09:58:09.139Z,982.79
2023-02-11T09:59:09.040Z,982.81
2023-02-11T10:00:08.995Z,982.83
2023-02-11T10:01:08.973Z,982.89
2023-02-11T10:02:08.880Z,982.89
2023-02-11T10:03:08.890Z,982.89
2023-02-11T10:04:08.807Z,982.90
2023-02-11T10:05:08.746Z,982.90
2023-02-11T10:06:08.669Z,982.88
2023-02-11T10:07:08.597Z,982.92
2023-02-11T10:08:08.535Z,982.94
2023-02-11T10:09:08.441Z,982.88
2023-02-11T10:10:08.382Z,982.85
2023-02-11T10:11:08.359Z,982.87
2023-02-11T10:12:08.298Z,982.85
2023-02-11T10:13:08.222Z,982.85
2023-02-11T10:14:08.200Z,982.85
2023-02-11T10:15:08.116Z,982.81
2023-02-11T10:16:08.115Z,982.89
2023-02-11T10:17:07.987Z,982.86
2023-02-11T10:18:07.937Z,982.91
2023-02-11T10:19:07.879Z,982.89
2023-02-11T10:20:07.822Z,982.96
2023-02-11T10:21:07.777Z,982.94
2023-02-11T10:22:07.713Z,982.94
2023-02-11T10:23:07.618Z,982.99
2023-02-11T10:24:07.583Z,982.97
2023-02-11T10:25:07.524Z,983.00
2023-02-11T10:26:07.473Z,983.02
2023-02-11T10:27:07.407Z,983.00
2023-02-11T10:28:07.419Z,982.94
2023-02-11T10:29:07.281Z,982.93
2023-02-11T10:30:07.207Z,982.98
2023-02-11T10:31:07.292Z,982.98
2023-02-11T10:32:07.192Z,982.99
2023-02-11T10:33:07.042Z,983.01
2023-02-11T10:34:06.986Z,983.00
2023-02-11T10:35:06.932Z,983.03
2023-02-11T10:36:06.892Z,983.06
2023-02-11T10:37:06.802Z,983.08
2023-02-11T10:38:06.764Z,983.11
2023-02-11T10:39:06.703Z,983.07
2023-02-11T10:40:06.661Z,983.11
2023-02-11T10:41:06.556Z,983.13
2023-02-11T10:42:06.495Z,983.12
2023-02-11T10:43:06.478Z,983.15
2023-02-11T10:44:06.413Z,983.13
2023-02-11T10:45:06.380Z,983.07
2023-02-11T10:46:06.408Z,983.08
2023-02-11T10:47:06.225Z,983.10
2023-02-11T10:48:06.160Z,983.12
2023-02-11T10:49:06.117Z,983.08
2023-02-11T10:50:06.080Z,983.07
2023-02-11T10:51:06.019Z,983.04
2023-02-11T10:52:05.940Z,983.05
2023-02-11T10:53:05.865Z,983.01
2023-02-11T10:54:05.817Z,982.96
2023-02-11T10:55:05.787Z,982.91
2023-02-11T10:56:05.716Z,982.96
2023-02-11T10:57:05.644Z,982.99
2023-02-11T10:58:05.589Z,982.96
2023-02-11T10:59:05.540Z,982.97
2023-02-11T11:00:05.461Z,982.94
2023-02-11T11:01:19.020Z,982.97
2023-02-11T11:02:05.415Z,982.92
2023-02-11T11:03:05.275Z,982.98
2023-02-11T11:04:05.264Z,982.94
2023-02-11T11:05:05.247Z,982.93
2023-02-11T11:06:05.128Z,982.96
2023-02-11T11:07:05.074Z,982.97
2023-02-11T11:08:05.011Z,982.96
2023-02-11T11:09:04.926Z,982.97
2023-02-11T11:10:04.876Z,982.98
2023-02-11T11:11:04.863Z,982.95
2023-02-11T11:12:04.748Z,982.96
2023-02-11T11:13:04.713Z,982.96
2023-02-11T11:14:04.625Z,982.96
2023-02-11T11:15:04.582Z,982.92
2023-02-11T11:16:04.573Z,982.97
2023-02-11T11:17:04.432Z,982.92
2023-02-11T11:18:20.304Z,982.93
2023-02-11T11:19:04.354Z,982.89
2023-02-11T11:20:04.291Z,982.89
2023-02-11T11:21:04.224Z,982.87
2023-02-11T11:22:04.179Z,982.84
2023-02-11T11:23:04.132Z,982.85
2023-02-11T11:24:04.110Z,982.83
2023-02-11T11:25:03.992Z,982.79
2023-02-11T11:26:03.947Z,982.82
2023-02-11T11:27:03.850Z,982.82
2023-02-11T11:28:03.975Z,982.87
2023-02-11T11:29:03.742Z,982.85
2023-02-11T11:30:03.711Z,982.84
2023-02-11T11:31:03.743Z,982.85
2023-02-11T11:32:03.597Z,982.84
2023-02-11T11:33:03.521Z,982.85
2023-02-11T11:34:03.492Z,982.89
2023-02-11T11:35:03.425Z,982.91
2023-02-11T11:36:03.334Z,982.95
2023-02-11T11:37:03.286Z,982.95
2023-02-11T11:38:03.231Z,982.91
2023-02-11T11:39:03.137Z,982.93
2023-02-11T11:40:03.155Z,982.94
2023-02-11T11:41:03.617Z,982.91
2023-02-11T11:42:02.992Z,982.91
2023-02-11T11:43:02.938Z,982.87
2023-02-11T11:44:02.878Z,982.92
2023-02-11T11:45:02.828Z,982.91
2023-02-11T11:46:02.767Z,982.90
2023-02-11T11:47:02.716Z,982.90
2023-02-11T11:48:02.666Z,982.91
2023-02-11T11:49:02.579Z,982.87
2023-02-11T11:50:02.520Z,982.91
2023-02-11T11:51:02.478Z,982.89
2023-02-11T11:52:02.408Z,982.91
2023-02-11T11:53:02.506Z,982.90
2023-02-11T11:54:02.279Z,982.88
2023-02-11T11:55:02.239Z,982.84
2023-02-11T11:56:02.166Z,982.85
2023-02-11T11:57:02.143Z,982.84
2023-02-11T11:58:02.091Z,982.89
2023-02-11T11:59:01.986Z,982.87
2023-02-11T12:00:01.895Z,982.89
2023-02-11T12:01:01.883Z,982.91
2023-02-11T12:02:01.862Z,982.88
2023-02-11T12:03:01.788Z,982.93
2023-02-11T12:04:01.724Z,982.95
2023-02-11T12:05:01.612Z,982.93
2023-02-11T12:06:01.600Z,982.93
2023-02-11T12:07:01.520Z,982.88
2023-02-11T12:08:01.430Z,982.93
2023-02-11T12:09:01.393Z,982.92
2023-02-11T12:10:01.358Z,982.88
2023-02-11T12:11:01.293Z,982.89
2023-02-11T12:12:01.218Z,982.90
2023-02-11T12:13:01.206Z,982.89
2023-02-11T12:14:01.124Z,982.93
2023-02-11T12:15:01.037Z,982.91
2023-02-11T12:16:01.041Z,982.90
2023-02-11T12:17:00.957Z,982.85
2023-02-11T12:18:00.869Z,982.82
2023-02-11T12:19:00.814Z,982.87
2023-02-11T12:20:00.780Z,982.87
2023-02-11T12:21:00.685Z,982.84
2023-02-11T12:22:00.646Z,982.82
2023-02-11T12:23:00.555Z,982.82
2023-02-11T12:24:00.540Z,982.87
2023-02-11T12:25:00.438Z,982.83
2023-02-11T12:26:00.405Z,982.86
2023-02-11T12:27:00.337Z,982.85
2023-02-11T12:28:00.362Z,982.83